Flight Track Log - Related Links

Times and Time Zones

All times are in EDT time to prevent confusion due to time zone crossing. See the TCF3494 flight status page for this flight to view local times or setup timezone preferences in your user account.

Time Position Orientation Groundspeed Altitude Reporting Facility
EDT Latitude Longitude Course Direction KTS MPH feet Rate Location/Type
Wed 12:49:39 PM 38.9333 -77.5500 260° West 202 232 2,400  Level Potomac TRACON
Wed 12:51:00 PM 38.8341 -78.0005 258° West  Level Estimated
Wed 12:51:15 PM 38.8911 -77.6800 247° West 260 299 5,900  Level Washington Center
Wed 12:52:00 PM 38.8054 -78.1354 256° West  Level Estimated
Wed 12:52:15 PM 38.8539 -77.7775 244° Southwest 274 315 9,000  Level Washington Center
Wed 12:53:00 PM 38.7765 -78.2702 256° West  Level Estimated
Wed 12:53:16 PM 38.8481 -77.8706 265° West 280 322 10,900  Level Washington Center
Wed 12:54:00 PM 38.7475 -78.4048 260° West  Level Estimated
Wed 12:54:14 PM 38.8478 -77.9853 270° West 299 344 12,900  Level Washington Center
Wed 12:55:15 PM 38.8517 -78.1028 272° West 323 372 15,000 1,967 Climbing Washington Center
Wed 12:56:16 PM 38.8533 -78.2253 271° West 335 386 16,900 1,785 Climbing Washington Center
Wed 12:57:16 PM 38.8528 -78.3478 270° West 341 392 18,600 1,600 Climbing Washington Center
Wed 12:58:16 PM 38.8372 -78.4725 261° West 351 404 20,100 1,475 Climbing Washington Center
Wed 01:00:15 PM 38.7975 -78.7242 259° West 362 417 23,000 1,367 Climbing Washington Center
Wed 01:01:16 PM 38.7753 -78.8536 258° West 373 429 24,200 1,311 Climbing Washington Center
Wed 01:02:14 PM 38.7528 -78.9883 258° West 378 435 25,600 1,322 Climbing Washington Center
Wed 01:03:14 PM 38.7303 -79.1231 258° West 378 435 26,800 1,339 Climbing Washington Center
Wed 01:04:15 PM 38.7069 -79.2764 259° West 390 449 28,300 1,339 Climbing Washington Center
Wed 01:05:15 PM 38.6839 -79.4108 258° West 395 455 29,500 1,160 Climbing Washington Center
Wed 01:06:14 PM 38.6606 -79.5506 258° West 395 455 30,600 1,000 Climbing Washington Center
Wed 01:07:15 PM 38.6397 -79.6744 258° West 400 460 31,500 1,131 Climbing Washington Center
Wed 01:08:16 PM 38.6139 -79.8164 257° West 405 466 32,900 1,210 Climbing Washington Center
Wed 01:09:14 PM 38.5906 -79.9506 257° West 410 472 33,900 915 Climbing Washington Center
Wed 01:10:14 PM 38.5667 -80.0872 257° West 405 466 34,700 649 Climbing Washington Center
Wed 01:12:28 PM 38.5072 -80.3861 256° West 392 451 36,000 398 Climbing Indianapolis Center
Wed 01:13:30 PM 38.4797 -80.5333 257° West 388 447 36,000  Level Indianapolis Center
Wed 01:14:32 PM 38.4547 -80.6667 257° West 387 445 36,000  Level Indianapolis Center
Wed 01:15:34 PM 38.4294 -80.8022 257° West 389 448 36,000  Level Indianapolis Center
Wed 01:16:35 PM 38.4025 -80.9369 256° West 391 450 36,000  Level Indianapolis Center
Wed 01:17:37 PM 38.3767 -81.0714 256° West 389 448 36,000  Level Indianapolis Center
Wed 01:18:39 PM 38.3461 -81.2036 254° West 387 445 36,000  Level Indianapolis Center
Wed 01:19:41 PM 38.3147 -81.3367 253° West 389 448 36,000  Level Indianapolis Center
Wed 01:20:43 PM 38.2822 -81.4692 253° West 390 449 36,000  Level Indianapolis Center
Wed 01:21:45 PM 38.2497 -81.6017 253° West 389 448 36,000  Level Indianapolis Center
Wed 01:22:47 PM 38.2094 -81.7603 252° West 390 449 36,000  Level Indianapolis Center
Wed 01:23:49 PM 38.1714 -81.8897 250° West 389 448 36,000  Level Indianapolis Center
Wed 01:24:50 PM 38.1350 -82.0219 251° West 396 456 36,000  Level Indianapolis Center
Wed 01:25:52 PM 38.0978 -82.1542 250° West 396 456 36,000  Level Indianapolis Center
Wed 01:26:54 PM 38.0611 -82.2858 251° West 396 456 36,000  Level Indianapolis Center
Wed 01:27:56 PM 38.0222 -82.4181 250° West 398 458 36,000  Level Indianapolis Center
Wed 01:28:58 PM 37.9781 -82.5733 250° West 401 461 36,000  Level Indianapolis Center
Wed 01:30:00 PM 37.9392 -82.7053 250° West 400 460 36,000  Level Indianapolis Center
Wed 01:31:02 PM 37.9006 -82.8394 250° West 404 465 36,000  Level Indianapolis Center
Wed 01:32:04 PM 37.8606 -82.9725 249° West 406 467 36,000  Level Indianapolis Center
Wed 01:33:06 PM 37.8208 -83.1067 249° West 408 470 36,000  Level Indianapolis Center
Wed 01:34:08 PM 37.7728 -83.2606 248° West 404 465 36,000  Level Indianapolis Center
Wed 01:35:10 PM 37.7344 -83.3944 250° West 406 467 36,000  Level Indianapolis Center
Wed 01:36:12 PM 37.6958 -83.5272 250° West 403 464 36,000  Level Indianapolis Center
Wed 01:37:13 PM 37.6569 -83.6636 250° West 411 473 36,000  Level Indianapolis Center
Wed 01:38:15 PM 37.6172 -83.7972 249° West 410 472 36,000  Level Indianapolis Center
Wed 01:39:17 PM 37.5775 -83.9344 250° West 415 478 36,000  Level Indianapolis Center
Wed 01:40:19 PM 37.5300 -84.0925 249° West 415 478 36,000  Level Indianapolis Center
Wed 01:41:21 PM 37.4892 -84.2281 249° West 414 476 36,000  Level Indianapolis Center
Wed 01:42:23 PM 37.4469 -84.3614 248° West 411 473 36,000  Level Indianapolis Center
Wed 01:43:25 PM 37.4072 -84.4931 249° West 406 467 36,000  Level Indianapolis Center
Wed 01:44:27 PM 37.3644 -84.6269 248° West 409 471 36,000  Level Indianapolis Center
Wed 01:45:28 PM 37.3144 -84.7819 248° West 409 471 36,000  Level Indianapolis Center
Wed 01:46:30 PM 37.2722 -84.9158 248° West 412 474 36,000  Level Indianapolis Center
Wed 01:47:32 PM 37.2297 -85.0503 248° West 413 475 36,000  Level Indianapolis Center
Wed 01:48:34 PM 37.1883 -85.1819 249° West 408 470 36,000  Level Indianapolis Center
Wed 01:49:36 PM 37.1444 -85.3158 248° West 412 474 36,000  Level Indianapolis Center
Wed 01:50:38 PM 37.1031 -85.4483 249° West 410 472 36,000  Level Indianapolis Center
Wed 01:51:40 PM 37.0531 -85.5953 247° West 410 472 36,000  Level Indianapolis Center
Wed 01:52:42 PM 37.0106 -85.7300 248° West 413 475 36,000  Level Indianapolis Center
Wed 01:53:44 PM 36.9669 -85.8653 248° West 415 478 36,000  Level Indianapolis Center
Wed 01:54:46 PM 36.9244 -85.9967 248° West 407 468 36,000  Level Indianapolis Center
Wed 01:55:48 PM 36.8814 -86.1281 248° West 408 470 36,000  Level Indianapolis Center
Wed 01:56:50 PM 36.8378 -86.2592 247° West 407 468 36,000  Level Indianapolis Center
Wed 01:57:51 PM 36.7878 -86.4114 248° West 413 475 36,000  Level Memphis Center
Wed 01:58:51 PM 36.7439 -86.5431 247° West 413 475 36,000  Level Memphis Center
Wed 01:59:51 PM 36.7042 -86.6717 249° West 408 470 36,000  Level Memphis Center
Wed 02:00:51 PM 36.6600 -86.8003 247° West 408 470 36,000  Level Memphis Center
Wed 02:01:51 PM 36.6156 -86.9317 247° West 408 470 36,000  Level Memphis Center
Wed 02:02:51 PM 36.5714 -87.0628 247° West 408 470 36,000  Level Memphis Center
Wed 02:03:51 PM 36.5269 -87.1961 248° West 408 470 36,000  Level Memphis Center
Wed 02:04:51 PM 36.4800 -87.3244 246° West 413 475 36,000  Level Memphis Center
Wed 02:05:51 PM 36.4392 -87.4422 247° West 413 475 36,000  Level Memphis Center
Wed 02:06:51 PM 36.3919 -87.5728 246° West 413 475 36,000  Level Memphis Center
Wed 02:07:51 PM 36.3489 -87.7003 247° West 413 475 36,000  Level Memphis Center
Wed 02:08:51 PM 36.2997 -87.8358 246° West 418 481 36,000  Level Memphis Center
Wed 02:09:51 PM 36.2564 -87.9658 248° West 418 481 36,000  Level Memphis Center
Wed 02:10:51 PM 36.2067 -88.0986 245° Southwest 418 481 36,000  Level Memphis Center
Wed 02:11:51 PM 36.1614 -88.2411 249° West 418 481 36,000  Level Memphis Center
Wed 02:12:51 PM 36.1133 -88.3708 245° Southwest 418 481 36,000  Level Memphis Center
Wed 02:13:51 PM 36.0656 -88.5056 246° West 423 487 36,000  Level Memphis Center
Wed 02:14:51 PM 36.0194 -88.6400 247° West 423 487 36,000  Level Memphis Center
Wed 02:15:51 PM 35.9692 -88.7694 244° Southwest 423 487 36,000  Level Memphis Center
Wed 02:16:51 PM 35.9228 -88.9011 247° West 423 487 36,000  Level Memphis Center
Wed 02:17:51 PM 35.8742 -89.0300 245° Southwest 423 487 36,000  Level Memphis Center
Wed 02:18:51 PM 35.8275 -89.1639 247° West 417 480 36,000  Level Memphis Center
Wed 02:19:51 PM 35.7808 -89.2925 246° West 417 480 36,000  Level Memphis Center
Wed 02:20:51 PM 35.7317 -89.4211 245° Southwest 422 486 36,000  Level Memphis Center
Wed 02:21:51 PM 35.6950 -89.5261 247° West 422 486 36,000  Level Memphis Center
Wed 02:22:51 PM 35.6436 -89.6800 248° West 417 480 36,000  Level Memphis Center
Wed 02:23:51 PM 35.5964 -89.8056 245° Southwest 412 474 36,000  Level Memphis Center
Wed 02:24:51 PM 35.5489 -89.9361 246° West 412 474 36,000  Level Memphis Center
Wed 02:25:51 PM 35.5014 -90.0664 246° West 417 480 36,000  Level Memphis Center
Wed 02:26:51 PM 35.4536 -90.1889 244° Southwest 417 480 36,000  Level Memphis Center
Wed 02:27:51 PM 35.4078 -90.3164 246° West 417 480 36,000  Level Memphis Center
Wed 02:28:51 PM 35.3558 -90.4461 244° Southwest 422 486 36,000  Level Memphis Center
Wed 02:29:51 PM 35.3075 -90.5733 245° Southwest 422 486 36,000  Level Memphis Center
Wed 02:30:51 PM 35.2594 -90.7003 245° Southwest 422 486 36,000  Level Memphis Center
Wed 02:31:51 PM 35.2153 -90.8144 245° Southwest 416 479 36,000  Level Memphis Center
Wed 02:32:51 PM 35.1667 -90.9439 245° Southwest 416 479 36,000  Level Memphis Center
Wed 02:33:51 PM 35.1181 -91.0703 245° Southwest 416 479 36,000  Level Memphis Center
Wed 02:34:51 PM 35.0672 -91.1969 244° Southwest 421 484 36,000  Level Memphis Center
Wed 02:35:51 PM 35.0183 -91.3231 245° Southwest 416 479 36,000  Level Memphis Center
Wed 02:36:51 PM 34.9694 -91.4417 243° Southwest 416 479 36,000  Level Memphis Center
Wed 02:37:51 PM 34.9203 -91.5678 245° Southwest 411 473 36,000  Level Memphis Center
Wed 02:38:51 PM 34.8644 -91.7086 244° Southwest 411 473 36,000  Level Memphis Center
Wed 02:39:51 PM 34.8217 -91.8167 244° Southwest 411 473 36,000  Level Memphis Center
Wed 02:40:51 PM 34.7700 -91.9447 244° Southwest 411 473 36,000  Level Memphis Center
Wed 02:41:51 PM 34.7203 -92.0703 244° Southwest 416 479 36,000  Level Memphis Center
Wed 02:42:51 PM 34.6725 -92.1981 246° West 422 486 36,000  Level Memphis Center
Wed 02:43:51 PM 34.6372 -92.3286 252° West 416 479 36,000  Level Memphis Center
Wed 02:44:51 PM 34.6014 -92.4717 253° West 410 472 36,000  Level Memphis Center
Wed 02:45:51 PM 34.5636 -92.6017 251° West 405 466 36,000  Level Memphis Center
Wed 02:46:51 PM 34.5278 -92.7344 252° West 405 466 36,000  Level Memphis Center
Wed 02:47:51 PM 34.4961 -92.8669 254° West 410 472 36,000  Level Memphis Center
Wed 02:48:51 PM 34.4603 -92.9894 250° West 410 472 36,000  Level Memphis Center
Wed 02:49:51 PM 34.4261 -93.1219 253° West 405 466 36,000  Level Memphis Center
Wed 02:50:51 PM 34.3897 -93.2542 252° West 405 466 36,000  Level Memphis Center
Wed 02:52:16 PM 34.3397 -93.4347 252° West 405 466 36,000  Level Fort Worth Center
Wed 02:53:16 PM 34.3064 -93.5644 253° West 397 457 36,000  Level Fort Worth Center
Wed 02:54:16 PM 34.2686 -93.6942 251° West 410 472 36,000  Level Fort Worth Center
Wed 02:55:16 PM 34.2328 -93.8264 252° West 410 472 36,000  Level Fort Worth Center
Wed 02:56:16 PM 34.2008 -93.9583 254° West 410 472 36,000  Level Fort Worth Center
Wed 02:57:16 PM 34.1628 -94.0853 250° West 410 472 36,000  Level Fort Worth Center
Wed 02:58:16 PM 34.1264 -94.2122 251° West 410 472 36,000 -250 Level Fort Worth Center
Wed 02:59:16 PM 34.0878 -94.3439 251° West 410 472 35,500 -600 Descending Fort Worth Center
Wed 03:00:16 PM 34.0514 -94.4781 252° West 415 478 34,800 -700 Descending Fort Worth Center
Wed 03:01:16 PM 34.0128 -94.6072 250° West 415 478 34,100 -750 Descending Fort Worth Center
Wed 03:02:16 PM 33.9697 -94.7414 249° West 421 484 33,300 -550 Descending Fort Worth Center
Wed 03:03:16 PM 33.9244 -94.8728 247° West 426 490 33,000 -150 Descending Fort Worth Center
Wed 03:04:16 PM 33.8872 -94.9914 249° West 426 490 33,000 -350 Level Fort Worth Center
Wed 03:05:16 PM 33.8394 -95.1228 246° West 426 490 32,300 -850 Descending Fort Worth Center
Wed 03:06:16 PM 33.7897 -95.2642 247° West 439 505 31,300 -950 Descending Fort Worth Center
Wed 03:07:16 PM 33.7419 -95.4053 248° West 450 518 30,400 -1,800 Descending Fort Worth Center
Wed 03:08:16 PM 33.6961 -95.5461 249° West 456 525 27,700 -2,700 Descending Fort Worth Center
Wed 03:09:16 PM 33.6481 -95.6842 247° West 456 525 25,000 -2,650 Descending Fort Worth Center
Wed 03:10:16 PM 33.6058 -95.8122 248° West 442 509 22,400 -2,750 Descending Fort Worth Center
Wed 03:11:16 PM 33.5575 -95.9478 247° West 419 482 19,500 -2,600 Descending Fort Worth Center
Wed 03:12:16 PM 33.5131 -96.0731 247° West 412 474 17,200 -2,450 Descending Fort Worth Center
Wed 03:13:16 PM 33.4725 -96.1908 248° West 396 456 14,600 -2,350 Descending Fort Worth Center
Wed 03:14:16 PM 33.4317 -96.3083 247° West 391 450 12,500 -1,800 Descending Fort Worth Center
Wed 03:15:16 PM 33.3867 -96.4158 243° Southwest 373 429 11,000 -865 Descending Fort Worth Center
Wed 03:16:07 PM 33.3167 -96.4833 219° Southwest 359 413 10,900 -509 Descending Dallas / Fort Worth TRACON
Wed 03:17:02 PM 33.2667 -96.5500 228° Southwest 290 334 10,100 -1,357 Descending Dallas / Fort Worth TRACON
Wed 03:18:02 PM 33.2333 -96.6333 244° Southwest 285 328 8,300 -1,746 Descending Dallas / Fort Worth TRACON
Wed 03:19:16 PM 33.1989 -96.7381 249° West 283 326 6,200 -1,467 Descending Fort Worth Center
Wed 03:20:17 PM 33.1619 -96.8253 243° Southwest 278 320 5,000 -650 Descending Fort Worth Center
Wed 03:21:16 PM 33.1286 -96.9000 242° Southwest 278 320 4,900 -629 Descending Fort Worth Center
Wed 03:22:02 PM 33.1000 -96.9667 243° Southwest 264 304 3,900 -1,075 Descending Dallas / Fort Worth TRACON
Wed 03:23:02 PM 33.0667 -97.0167 232° Southwest 238 274 3,000 -750 Descending Dallas / Fort Worth TRACON
Wed 03:24:02 PM 33.0000 -97.0167 180° South 221 254 2,400 -850 Descending Dallas / Fort Worth TRACON
Wed 03:25:02 PM 32.9500 -97.0167 180° South 151 174 1,300 -1,100 Descending Dallas / Fort Worth TRACON

Login

Don't have an account? Register now (free) for customized features, flight alerts, and more!